Time;durP1;ratioP1;P1;durP2;ratioP2;P2;SDS_P1;SDS_P2;PMS_P1;PMS_P2;Temp;Humidity;BMP_temperature;BMP_pressure;BME280_temperature;BME280_humidity;BME280_pressure;Samples;Min_cycle;Max_cycle;Signal;HPM_P1;HPM_P2
2021/12/22 00:00:48;;;;;;;;;;;5.20;60.10;;;;;;6077205;23;19973;-80
2021/12/22 00:03:17;;;;;;;;;;;5.20;60.70;;;;;;6112872;23;19921;-78
2021/12/22 00:05:46;;;;;;;;;;;5.20;60.20;;;;;;6083671;23;19921;-81
2021/12/22 00:08:14;;;;;;;;;;;5.20;60.30;;;;;;6103870;23;19972;-79
2021/12/22 00:10:41;;;;;;;;;;;5.10;60.50;;;;;;6079829;23;19925;-79
2021/12/22 00:13:08;;;;;;;;;;;5.10;60.30;;;;;;6088299;23;19905;-78
2021/12/22 00:15:35;;;;;;;;;;;5.00;60.20;;;;;;6084946;23;19973;-80
2021/12/22 00:18:02;;;;;;;;;;;5.00;60.50;;;;;;6070507;23;19925;-80
2021/12/22 00:20:29;;;;;;;;;;;5.00;60.40;;;;;;6075840;23;20239;-81
2021/12/22 00:22:58;;;;;;;;;;;5.00;60.60;;;;;;6082098;23;19952;-81
2021/12/22 00:25:26;;;;;;;;;;;5.00;60.40;;;;;;6084978;23;19925;-77
2021/12/22 00:27:54;;;;;;;;;;;4.90;60.70;;;;;;6082282;23;20307;-78
2021/12/22 00:30:24;;;;;;;;;;;4.90;60.60;;;;;;6104467;23;19925;-80
2021/12/22 00:32:53;;;;;;;;;;;4.80;60.70;;;;;;6107150;23;19940;-80
2021/12/22 00:35:21;;;;;;;;;;;4.80;60.80;;;;;;6115037;23;19969;-80
2021/12/22 00:37:48;;;;;;;;;;;4.70;61.20;;;;;;6109011;23;19925;-79
2021/12/22 00:40:15;;;;;;;;;;;4.60;61.30;;;;;;6131982;23;19976;-79
2021/12/22 00:42:42;;;;;;;;;;;4.60;61.50;;;;;;6109976;23;19925;-79
2021/12/22 00:45:10;;;;;;;;;;;4.50;61.40;;;;;;6110534;23;20335;-80
2021/12/22 00:47:38;;;;;;;;;;;4.40;61.80;;;;;;6115865;23;19912;-77
2021/12/22 00:50:05;;;;;;;;;;;4.40;61.90;;;;;;6113632;23;19948;-82
2021/12/22 00:52:32;;;;;;;;;;;4.30;61.80;;;;;;6103493;23;19948;-81
2021/12/22 00:54:59;;;;;;;;;;;4.30;61.90;;;;;;6111011;23;19936;-81
2021/12/22 00:57:27;;;;;;;;;;;4.30;61.50;;;;;;6103325;23;19932;-77
2021/12/22 00:59:53;;;;;;;;;;;4.30;61.30;;;;;;6103731;23;19921;-77
2021/12/22 01:02:20;;;;;;;;;;;4.40;61.30;;;;;;6114188;23;19943;-79
2021/12/22 01:04:47;;;;;;;;;;;4.40;61.40;;;;;;6107741;23;19958;-80
2021/12/22 01:07:14;;;;;;;;;;;4.30;61.80;;;;;;6117270;23;19944;-79
2021/12/22 01:09:41;;;;;;;;;;;4.30;62.10;;;;;;6105682;23;19928;-79
2021/12/22 01:12:08;;;;;;;;;;;4.20;62.40;;;;;;6127685;23;19983;-80
2021/12/22 01:14:37;;;;;;;;;;;4.10;62.40;;;;;;6101951;23;19928;-80
2021/12/22 01:17:04;;;;;;;;;;;4.10;62.80;;;;;;6110194;23;19929;-80
2021/12/22 01:19:58;;;;;;;;;;;4.00;63.00;;;;;;6100358;23;19931;-81
2021/12/22 01:22:34;;;;;;;;;;;4.00;63.20;;;;;;6098634;23;19996;-79
2021/12/22 01:25:03;;;;;;;;;;;3.90;62.90;;;;;;6110885;23;19935;-81
2021/12/22 01:27:34;;;;;;;;;;;3.90;63.10;;;;;;6119990;23;19905;-78
2021/12/22 01:30:09;;;;;;;;;;;3.90;63.00;;;;;;6108808;23;19951;-80
2021/12/22 01:32:36;;;;;;;;;;;3.90;63.10;;;;;;6105831;23;19925;-81
2021/12/22 01:35:04;;;;;;;;;;;3.90;63.00;;;;;;6112203;23;19921;-79
2021/12/22 01:37:31;;;;;;;;;;;3.80;63.20;;;;;;6107474;23;20302;-79
2021/12/22 01:40:00;;;;;;;;;;;3.80;63.50;;;;;;6135126;23;19924;-78
2021/12/22 01:42:28;;;;;;;;;;;3.70;63.40;;;;;;6106083;23;19921;-80
2021/12/22 01:45:36;;;;;;;;;;;3.60;63.70;;;;;;6104233;23;19968;-78
2021/12/22 01:50:55;;;;;;;;;;;3.50;64.40;;;;;;6136223;23;19921;-78
2021/12/22 01:53:21;;;;;;;;;;;3.40;64.80;;;;;;6104607;23;19980;-79
2021/12/22 01:56:18;;;;;;;;;;;3.30;65.10;;;;;;6111292;23;19944;-78
2021/12/22 01:58:47;;;;;;;;;;;3.30;65.40;;;;;;6100549;23;20325;-79
2021/12/22 02:01:15;;;;;;;;;;;3.20;65.30;;;;;;6104562;23;19967;-80
2021/12/22 02:03:43;;;;;;;;;;;3.20;65.40;;;;;;6102114;23;19924;-80
2021/12/22 02:06:11;;;;;;;;;;;3.20;65.70;;;;;;6115742;23;19932;-77
2021/12/22 02:08:38;;;;;;;;;;;3.10;65.80;;;;;;6103515;23;20350;-80
2021/12/22 02:11:06;;;;;;;;;;;3.10;66.20;;;;;;6102063;23;19925;-80
2021/12/22 02:13:37;;;;;;;;;;;3.10;66.20;;;;;;6102987;23;19921;-80
2021/12/22 02:16:10;;;;;;;;;;;3.20;66.10;;;;;;6103340;23;19928;-77
2021/12/22 02:18:41;;;;;;;;;;;3.10;66.10;;;;;;6115062;23;19999;-77
2021/12/22 02:21:08;;;;;;;;;;;3.10;66.30;;;;;;6118420;23;19929;-80
2021/12/22 02:23:35;;;;;;;;;;;3.10;67.50;;;;;;6108328;23;20313;-78
2021/12/22 02:26:09;;;;;;;;;;;3.00;66.50;;;;;;6105369;23;20021;-79
2021/12/22 02:28:38;;;;;;;;;;;3.00;66.70;;;;;;6115925;23;19909;-80
2021/12/22 02:31:05;;;;;;;;;;;2.90;66.70;;;;;;6106094;23;19929;-79
2021/12/22 02:33:35;;;;;;;;;;;2.90;66.70;;;;;;6107160;23;19928;-80
2021/12/22 02:38:30;;;;;;;;;;;2.90;66.70;;;;;;6137846;23;19925;-80
2021/12/22 02:40:57;;;;;;;;;;;2.90;66.60;;;;;;6099819;23;20033;-79
2021/12/22 02:43:30;;;;;;;;;;;3.00;66.30;;;;;;6109206;23;19949;-79
2021/12/22 02:45:57;;;;;;;;;;;3.00;66.20;;;;;;6115615;23;19919;-78
2021/12/22 02:48:28;;;;;;;;;;;3.00;66.10;;;;;;6108296;23;20338;-79
2021/12/22 02:50:57;;;;;;;;;;;3.00;65.90;;;;;;6101759;23;19948;-80
2021/12/22 02:53:29;;;;;;;;;;;3.00;65.90;;;;;;6099515;23;19921;-81
2021/12/22 02:56:06;;;;;;;;;;;3.00;66.20;;;;;;6121799;23;19911;-77
2021/12/22 03:01:11;;;;;;;;;;;2.80;66.30;;;;;;6134969;23;19925;-78
2021/12/22 03:03:58;;;;;;;;;;;2.80;66.40;;;;;;6103355;23;19921;-80
2021/12/22 03:09:13;;;;;;;;;;;2.70;66.80;;;;;;6138410;23;19925;-79
2021/12/22 03:11:40;;;;;;;;;;;2.70;66.80;;;;;;6131855;23;19921;-80
2021/12/22 03:14:07;;;;;;;;;;;2.70;66.80;;;;;;6106130;23;20302;-79
2021/12/22 03:16:34;;;;;;;;;;;2.70;66.90;;;;;;6101250;23;20342;-80
2021/12/22 03:19:01;;;;;;;;;;;2.70;66.60;;;;;;6115917;23;19921;-79
2021/12/22 03:21:30;;;;;;;;;;;2.70;66.70;;;;;;6123506;23;19944;-80
2021/12/22 03:23:57;;;;;;;;;;;2.70;66.80;;;;;;6117779;23;19907;-77
2021/12/22 03:26:25;;;;;;;;;;;2.70;66.80;;;;;;6109527;23;19967;-78
2021/12/22 03:28:52;;;;;;;;;;;2.60;67.20;;;;;;6109001;23;19929;-78
2021/12/22 03:31:18;;;;;;;;;;;2.70;67.00;;;;;;6108475;23;19925;-81
2021/12/22 03:33:45;;;;;;;;;;;2.70;67.10;;;;;;6107291;23;20298;-80
2021/12/22 03:36:14;;;;;;;;;;;2.60;68.20;;;;;;6110669;23;19920;-80
2021/12/22 03:38:42;;;;;;;;;;;2.60;67.20;;;;;;6112790;23;20022;-79
2021/12/22 03:41:09;;;;;;;;;;;2.60;67.40;;;;;;6112775;23;19977;-77
2021/12/22 03:43:36;;;;;;;;;;;2.60;67.20;;;;;;6124105;23;19920;-78
2021/12/22 03:46:04;;;;;;;;;;;2.60;67.20;;;;;;6104474;23;19928;-81
2021/12/22 03:48:32;;;;;;;;;;;2.60;67.20;;;;;;6111123;23;19913;-78
2021/12/22 03:50:58;;;;;;;;;;;2.60;67.20;;;;;;6106494;23;19921;-81
2021/12/22 03:53:25;;;;;;;;;;;2.50;67.20;;;;;;6136002;23;19921;-81
2021/12/22 03:55:52;;;;;;;;;;;2.50;67.20;;;;;;6106697;23;19925;-79
2021/12/22 03:58:19;;;;;;;;;;;2.50;67.30;;;;;;6116281;23;19921;-79
2021/12/22 04:00:46;;;;;;;;;;;2.50;67.20;;;;;;6106852;23;19921;-80
2021/12/22 04:03:19;;;;;;;;;;;2.50;67.30;;;;;;6133172;23;20338;-78
2021/12/22 04:05:46;;;;;;;;;;;2.50;67.40;;;;;;6115143;23;19925;-78
2021/12/22 04:08:16;;;;;;;;;;;2.50;67.10;;;;;;6118755;23;19921;-80
2021/12/22 04:10:43;;;;;;;;;;;2.50;66.90;;;;;;6105209;23;19952;-79
2021/12/22 04:13:09;;;;;;;;;;;2.50;67.10;;;;;;6106547;23;19925;-79
2021/12/22 04:15:36;;;;;;;;;;;2.50;67.20;;;;;;6119284;23;19905;-81
2021/12/22 04:18:03;;;;;;;;;;;2.40;67.10;;;;;;6123074;23;19911;-78
2021/12/22 04:20:30;;;;;;;;;;;2.50;66.80;;;;;;6113351;23;20298;-81
2021/12/22 04:22:57;;;;;;;;;;;2.50;66.70;;;;;;6107868;23;19921;-80
2021/12/22 04:25:24;;;;;;;;;;;2.50;66.60;;;;;;6107078;23;19921;-79
2021/12/22 04:27:52;;;;;;;;;;;2.50;66.70;;;;;;6108588;23;19921;-81
2021/12/22 04:30:20;;;;;;;;;;;2.50;66.80;;;;;;6110610;23;19948;-78
2021/12/22 04:32:47;;;;;;;;;;;2.40;66.80;;;;;;6116984;23;19933;-79
2021/12/22 04:35:13;;;;;;;;;;;2.50;66.60;;;;;;6113187;23;20000;-78
2021/12/22 04:37:40;;;;;;;;;;;2.50;66.60;;;;;;6108571;23;20405;-80
2021/12/22 04:40:07;;;;;;;;;;;2.50;66.70;;;;;;6113512;23;19925;-80
2021/12/22 04:42:34;;;;;;;;;;;2.50;66.70;;;;;;6117974;23;20293;-77
2021/12/22 04:45:05;;;;;;;;;;;2.50;66.40;;;;;;6111947;23;19932;-78
2021/12/22 04:47:33;;;;;;;;;;;2.50;66.60;;;;;;6114076;23;19924;-79
2021/12/22 04:50:01;;;;;;;;;;;2.50;66.60;;;;;;6111347;23;19925;-80
2021/12/22 04:52:38;;;;;;;;;;;2.50;66.60;;;;;;6113668;23;19988;-79
2021/12/22 04:55:05;;;;;;;;;;;2.40;66.80;;;;;;6109907;23;19925;-80
2021/12/22 04:57:33;;;;;;;;;;;2.40;67.00;;;;;;6103562;23;19962;-81
2021/12/22 05:00:00;;;;;;;;;;;2.30;67.40;;;;;;6106751;23;19968;-79
2021/12/22 05:02:27;;;;;;;;;;;2.30;67.40;;;;;;6105704;23;19944;-79
2021/12/22 05:04:54;;;;;;;;;;;2.30;67.50;;;;;;6113196;23;19925;-80
2021/12/22 05:07:21;;;;;;;;;;;2.30;67.10;;;;;;6107468;23;19921;-80
2021/12/22 05:09:48;;;;;;;;;;;2.30;67.00;;;;;;6138139;23;19921;-78
2021/12/22 05:12:15;;;;;;;;;;;2.30;67.00;;;;;;6108489;23;20417;-78
2021/12/22 05:14:44;;;;;;;;;;;2.30;67.20;;;;;;6105599;23;19925;-78
2021/12/22 05:17:19;;;;;;;;;;;2.30;67.20;;;;;;6111799;23;19928;-80
2021/12/22 05:19:46;;;;;;;;;;;2.20;67.30;;;;;;6108507;23;20397;-80
2021/12/22 05:22:13;;;;;;;;;;;2.20;67.40;;;;;;6104909;23;19920;-80
2021/12/22 05:24:39;;;;;;;;;;;2.10;67.70;;;;;;6108530;23;19925;-80
2021/12/22 05:27:08;;;;;;;;;;;2.10;67.70;;;;;;6080726;23;19928;-80
2021/12/22 05:29:35;;;;;;;;;;;2.10;67.60;;;;;;6105500;23;19925;-77
2021/12/22 05:32:03;;;;;;;;;;;2.10;67.50;;;;;;6104367;23;19960;-80
2021/12/22 05:34:32;;;;;;;;;;;2.10;67.70;;;;;;6112140;23;19948;-80
2021/12/22 05:36:59;;;;;;;;;;;2.10;67.70;;;;;;6108643;23;19920;-80
2021/12/22 05:39:26;;;;;;;;;;;2.20;67.60;;;;;;6114176;23;19921;-79
2021/12/22 05:41:54;;;;;;;;;;;2.20;67.50;;;;;;6101378;23;19925;-80
2021/12/22 05:44:21;;;;;;;;;;;2.20;67.40;;;;;;6109517;23;19921;-80
2021/12/22 05:46:48;;;;;;;;;;;2.30;67.30;;;;;;6106236;23;19972;-80
2021/12/22 05:49:15;;;;;;;;;;;2.30;67.30;;;;;;6106215;23;19929;-80
2021/12/22 05:51:42;;;;;;;;;;;2.30;67.70;;;;;;6105039;23;20338;-78
2021/12/22 05:54:08;;;;;;;;;;;2.30;67.70;;;;;;6111219;23;19929;-80
2021/12/22 05:56:35;;;;;;;;;;;2.30;67.80;;;;;;6111110;23;19929;-79
2021/12/22 05:59:02;;;;;;;;;;;2.20;67.80;;;;;;6115721;23;19905;-79
2021/12/22 06:01:30;;;;;;;;;;;2.20;67.80;;;;;;6099024;23;19980;-79
2021/12/22 06:03:59;;;;;;;;;;;2.20;67.70;;;;;;6109984;23;19921;-79
2021/12/22 06:06:26;;;;;;;;;;;2.20;67.70;;;;;;6105400;23;19925;-79
2021/12/22 06:08:53;;;;;;;;;;;2.20;67.90;;;;;;6104576;23;19928;-79
2021/12/22 06:11:20;;;;;;;;;;;2.20;67.80;;;;;;6136520;23;19972;-79
2021/12/22 06:13:47;;;;;;;;;;;2.20;67.80;;;;;;6105645;23;19946;-79
2021/12/22 06:16:14;;;;;;;;;;;2.10;67.60;;;;;;6106664;23;19927;-78
2021/12/22 06:18:44;;;;;;;;;;;2.20;67.50;;;;;;6135015;23;19925;-78
2021/12/22 06:21:11;;;;;;;;;;;2.20;67.60;;;;;;6101543;23;19929;-79
2021/12/22 06:23:38;;;;;;;;;;;2.20;67.50;;;;;;6115983;23;19928;-78
2021/12/22 06:26:05;;;;;;;;;;;2.20;67.50;;;;;;6129321;23;19921;-79
2021/12/22 06:28:32;;;;;;;;;;;2.20;67.40;;;;;;6099658;23;19925;-79
2021/12/22 06:31:00;;;;;;;;;;;2.10;67.40;;;;;;6108593;23;19928;-78
2021/12/22 06:33:27;;;;;;;;;;;2.10;68.30;;;;;;6111571;23;19921;-80
2021/12/22 06:35:54;;;;;;;;;;;2.10;67.50;;;;;;6075536;23;19927;-81
2021/12/22 06:38:21;;;;;;;;;;;2.00;67.70;;;;;;6081076;23;19906;-80
2021/12/22 06:40:48;;;;;;;;;;;2.10;67.70;;;;;;6103144;23;19928;-79
2021/12/22 06:43:16;;;;;;;;;;;2.00;68.10;;;;;;6072097;23;19980;-79
2021/12/22 06:45:42;;;;;;;;;;;2.00;68.10;;;;;;6071790;23;19929;-80
2021/12/22 06:48:10;;;;;;;;;;;1.90;68.10;;;;;;6076436;23;19921;-79
2021/12/22 06:50:36;;;;;;;;;;;1.90;68.10;;;;;;6101828;23;19921;-81
2021/12/22 06:53:03;;;;;;;;;;;1.90;68.00;;;;;;6091622;23;19932;-79
2021/12/22 06:55:30;;;;;;;;;;;1.90;68.20;;;;;;6081861;23;19921;-80
2021/12/22 06:57:59;;;;;;;;;;;1.90;68.40;;;;;;6107225;23;19921;-81
2021/12/22 07:00:26;;;;;;;;;;;1.90;68.10;;;;;;6076241;23;20335;-80
2021/12/22 07:02:54;;;;;;;;;;;1.90;68.30;;;;;;6101322;23;19925;-80
2021/12/22 07:05:21;;;;;;;;;;;1.90;68.30;;;;;;6080848;23;19921;-80
2021/12/22 07:07:48;;;;;;;;;;;1.90;68.20;;;;;;6077768;23;19906;-80
2021/12/22 07:10:15;;;;;;;;;;;1.90;68.20;;;;;;6073713;23;19929;-80
2021/12/22 07:12:45;;;;;;;;;;;1.80;68.30;;;;;;6077034;23;19936;-79
2021/12/22 07:15:14;;;;;;;;;;;1.90;68.30;;;;;;6104869;23;20339;-80
2021/12/22 07:17:42;;;;;;;;;;;1.90;68.10;;;;;;6076757;23;19984;-80
2021/12/22 07:20:09;;;;;;;;;;;1.80;67.90;;;;;;6075256;23;19969;-80
2021/12/22 07:22:36;;;;;;;;;;;1.90;67.90;;;;;;6081664;23;19953;-79
2021/12/22 07:25:04;;;;;;;;;;;1.80;68.00;;;;;;6100179;23;19928;-80
2021/12/22 07:27:31;;;;;;;;;;;1.80;68.40;;;;;;6076085;23;19951;-80
2021/12/22 07:29:58;;;;;;;;;;;1.80;68.40;;;;;;6095199;23;19921;-80
2021/12/22 07:32:25;;;;;;;;;;;1.70;68.70;;;;;;6086265;23;20365;-80
2021/12/22 07:34:57;;;;;;;;;;;1.70;68.70;;;;;;6099678;23;19967;-80
2021/12/22 07:37:31;;;;;;;;;;;1.70;68.80;;;;;;6104564;23;19921;-79
2021/12/22 07:39:57;;;;;;;;;;;1.70;68.80;;;;;;6105059;23;19921;-80
2021/12/22 07:42:24;;;;;;;;;;;1.70;69.10;;;;;;6115029;23;19921;-80
2021/12/22 07:44:51;;;;;;;;;;;1.80;68.70;;;;;;6104619;23;19921;-80
2021/12/22 07:47:18;;;;;;;;;;;2.00;68.10;;;;;;6098534;23;19972;-77
2021/12/22 07:49:45;;;;;;;;;;;2.20;67.00;;;;;;6129223;23;19921;-81
2021/12/22 07:52:12;;;;;;;;;;;2.30;66.80;;;;;;6100155;23;19926;-80
2021/12/22 07:54:39;;;;;;;;;;;2.30;66.50;;;;;;6101332;23;19921;-80
2021/12/22 07:57:06;;;;;;;;;;;2.20;66.70;;;;;;6109179;23;19928;-79
2021/12/22 07:59:33;;;;;;;;;;;2.20;66.80;;;;;;6107886;23;19921;-80
2021/12/22 08:02:00;;;;;;;;;;;2.10;66.90;;;;;;6106503;23;19981;-80
2021/12/22 08:04:28;;;;;;;;;;;2.00;67.10;;;;;;6102155;23;19964;-80
2021/12/22 08:06:55;;;;;;;;;;;2.00;67.50;;;;;;6104461;23;20282;-80
2021/12/22 08:09:26;;;;;;;;;;;2.00;67.70;;;;;;6106179;23;20945;-80
2021/12/22 08:11:53;;;;;;;;;;;2.00;67.70;;;;;;6104874;23;20287;-79
2021/12/22 08:14:22;;;;;;;;;;;2.00;67.80;;;;;;6105143;23;20198;-80
2021/12/22 08:16:50;;;;;;;;;;;2.00;67.70;;;;;;6100637;23;19924;-80
2021/12/22 08:19:17;;;;;;;;;;;2.00;67.80;;;;;;6110622;23;19924;-80
2021/12/22 08:21:44;;;;;;;;;;;2.10;67.60;;;;;;6105878;23;19925;-80
2021/12/22 08:24:11;;;;;;;;;;;2.10;67.00;;;;;;6108682;23;19925;-80
2021/12/22 08:26:38;;;;;;;;;;;2.20;66.90;;;;;;6118353;23;19928;-81
2021/12/22 08:29:06;;;;;;;;;;;2.20;67.00;;;;;;6110014;23;20409;-80
2021/12/22 08:31:33;;;;;;;;;;;2.20;66.80;;;;;;6106589;23;19928;-78
2021/12/22 08:34:00;;;;;;;;;;;2.20;66.90;;;;;;6074727;23;20394;-81
2021/12/22 09:22:13;;;;;;;;;;;4.30;62.00;;;;;;6044857;23;19922;-79
2021/12/22 09:24:41;;;;;;;;;;;4.40;61.80;;;;;;6018455;23;20948;-79
2021/12/22 09:27:08;;;;;;;;;;;4.50;61.00;;;;;;6025424;23;19993;-79
2021/12/22 09:29:36;;;;;;;;;;;4.50;60.90;;;;;;6013442;23;20343;-80
2021/12/22 09:32:04;;;;;;;;;;;4.60;60.50;;;;;;6019688;23;19922;-79
2021/12/22 09:34:31;;;;;;;;;;;4.70;60.30;;;;;;6022921;23;20311;-80
2021/12/22 09:36:58;;;;;;;;;;;4.80;60.40;;;;;;6049793;23;20369;-80
2021/12/22 09:39:26;;;;;;;;;;;4.90;60.60;;;;;;6023694;23;20467;-79
2021/12/22 09:41:53;;;;;;;;;;;5.00;59.90;;;;;;6019454;23;19922;-79
2021/12/22 09:44:20;;;;;;;;;;;5.10;59.20;;;;;;6019906;23;20339;-79
2021/12/22 09:46:49;;;;;;;;;;;5.20;59.20;;;;;;6015468;23;19989;-78
2021/12/22 09:49:20;;;;;;;;;;;5.30;58.30;;;;;;6021957;23;19922;-79
2021/12/22 09:54:32;;;;;;;;;;;5.40;57.70;;;;;;6048937;23;19922;-80
2021/12/22 09:57:00;;;;;;;;;;;5.50;58.20;;;;;;6028534;23;19930;-79
2021/12/22 09:59:27;;;;;;;;;;;5.60;57.30;;;;;;6018408;23;19974;-79
2021/12/22 10:01:58;;;;;;;;;;;5.70;56.70;;;;;;6019785;23;19922;-79
2021/12/22 10:04:25;;;;;;;;;;;5.80;57.30;;;;;;6018353;23;19932;-79
2021/12/22 10:06:52;;;;;;;;;;;5.90;56.80;;;;;;6039836;23;19989;-79
2021/12/22 10:09:21;;;;;;;;;;;6.00;56.80;;;;;;6032799;23;19946;-79
2021/12/22 10:11:48;;;;;;;;;;;6.10;56.70;;;;;;6024813;23;19914;-80
2021/12/22 10:14:20;;;;;;;;;;;6.20;56.50;;;;;;6013539;23;19925;-79
2021/12/22 10:16:48;;;;;;;;;;;6.30;55.60;;;;;;6019482;23;19922;-79
2021/12/22 10:19:15;;;;;;;;;;;6.40;55.50;;;;;;6028797;23;20411;-80
2021/12/22 10:21:50;;;;;;;;;;;6.50;55.30;;;;;;6082665;23;19925;-79
2021/12/22 10:24:17;;;;;;;;;;;6.50;55.30;;;;;;6096525;23;19956;-81
2021/12/22 10:26:44;;;;;;;;;;;6.70;55.40;;;;;;6070380;23;19989;-80
2021/12/22 10:29:11;;;;;;;;;;;6.80;54.90;;;;;;6100974;23;20279;-78
2021/12/22 10:31:38;;;;;;;;;;;6.90;54.50;;;;;;6098915;23;19957;-79
2021/12/22 10:34:07;;;;;;;;;;;7.00;54.30;;;;;;6094767;23;20006;-80
2021/12/22 10:37:01;;;;;;;;;;;7.10;54.20;;;;;;6069291;23;19922;-79
2021/12/22 10:39:29;;;;;;;;;;;7.20;54.00;;;;;;6069487;23;19937;-79
2021/12/22 10:42:02;;;;;;;;;;;7.30;54.30;;;;;;6098993;23;19921;-80
2021/12/22 10:44:35;;;;;;;;;;;7.30;54.90;;;;;;6098745;23;19921;-79
2021/12/22 10:47:35;;;;;;;;;;;7.40;54.40;;;;;;6096453;23;19905;-79
2021/12/22 10:50:06;;;;;;;;;;;7.50;54.30;;;;;;6088874;23;19925;-79
2021/12/22 10:52:34;;;;;;;;;;;7.60;54.90;;;;;;6073242;23;19921;-79
2021/12/22 10:55:08;;;;;;;;;;;7.70;55.70;;;;;;6091864;23;19925;-79
2021/12/22 10:57:40;;;;;;;;;;;7.70;55.40;;;;;;6066364;23;20020;-80
2021/12/22 11:00:13;;;;;;;;;;;7.70;56.60;;;;;;6099256;23;19958;-81
2021/12/22 11:02:44;;;;;;;;;;;7.90;57.90;;;;;;6094321;23;19921;-79
2021/12/22 11:05:19;;;;;;;;;;;7.80;57.20;;;;;;6094756;23;20362;-79
2021/12/22 11:07:46;;;;;;;;;;;8.00;56.70;;;;;;6094616;23;19928;-79
2021/12/22 11:10:23;;;;;;;;;;;8.00;57.10;;;;;;6077455;23;20291;-80
2021/12/22 11:12:59;;;;;;;;;;;8.00;57.60;;;;;;6071478;23;19921;-79
2021/12/22 11:15:26;;;;;;;;;;;8.00;57.60;;;;;;6094334;23;20299;-80
2021/12/22 11:17:53;;;;;;;;;;;7.90;57.40;;;;;;6064741;23;19969;-79
2021/12/22 11:20:23;;;;;;;;;;;7.70;58.90;;;;;;6075841;23;19932;-77
2021/12/22 11:25:18;;;;;;;;;;;7.70;64.80;;;;;;6076863;23;19921;-78
2021/12/22 11:27:46;;;;;;;;;;;7.60;64.80;;;;;;6042704;23;19926;-79
2021/12/22 11:30:13;;;;;;;;;;;7.50;65.20;;;;;;6052100;23;19922;-79
2021/12/22 11:32:40;;;;;;;;;;;7.40;66.40;;;;;;6043750;23;20259;-80
2021/12/22 11:35:08;;;;;;;;;;;7.40;66.90;;;;;;6078008;23;19949;-79
2021/12/22 11:37:37;;;;;;;;;;;7.40;67.00;;;;;;6046919;23;19993;-79
2021/12/22 11:40:08;;;;;;;;;;;7.30;67.60;;;;;;6049490;23;20224;-80
2021/12/22 11:42:39;;;;;;;;;;;7.30;67.80;;;;;;6048129;23;19992;-79
2021/12/22 11:45:11;;;;;;;;;;;7.40;67.40;;;;;;6048136;23;20319;-79
2021/12/22 11:47:39;;;;;;;;;;;7.50;67.40;;;;;;6058672;23;19933;-79
2021/12/22 11:50:07;;;;;;;;;;;7.50;67.00;;;;;;6047438;23;20303;-79
2021/12/22 11:52:36;;;;;;;;;;;7.50;68.80;;;;;;6077036;23;19912;-80
2021/12/22 11:55:06;;;;;;;;;;;7.50;67.70;;;;;;6046967;23;19982;-80
2021/12/22 11:57:33;;;;;;;;;;;7.60;68.00;;;;;;6059366;23;19921;-78
2021/12/22 12:00:23;;;;;;;;;;;7.70;67.80;;;;;;6050673;23;19974;-80
2021/12/22 12:02:51;;;;;;;;;;;7.70;67.50;;;;;;6051231;23;19925;-78
2021/12/22 12:05:22;;;;;;;;;;;7.60;67.80;;;;;;6054047;23;19922;-79
2021/12/22 12:07:52;;;;;;;;;;;7.70;68.10;;;;;;6042701;23;19922;-79
2021/12/22 12:10:32;;;;;;;;;;;7.60;67.70;;;;;;6052766;23;19921;-79
2021/12/22 12:13:05;;;;;;;;;;;7.50;67.90;;;;;;6052339;23;19926;-79
2021/12/22 12:15:58;;;;;;;;;;;7.50;68.10;;;;;;6052221;23;19905;-79
2021/12/22 12:21:47;;;;;;;;;;;7.50;68.40;;;;;;6082229;23;19987;-80
2021/12/22 12:24:33;;;;;;;;;;;7.30;68.80;;;;;;6043586;23;19925;-80
2021/12/22 12:27:02;;;;;;;;;;;7.20;69.40;;;;;;6078845;23;19929;-79
2021/12/22 12:29:47;;;;;;;;;;;7.10;70.10;;;;;;6053221;23;19929;-80
2021/12/22 12:32:32;;;;;;;;;;;7.10;70.40;;;;;;6070337;23;19922;-79
2021/12/22 12:35:18;;;;;;;;;;;7.00;70.40;;;;;;6086178;23;19906;-80
2021/12/22 12:38:12;;;;;;;;;;;7.00;71.10;;;;;;6076455;23;19922;-79
2021/12/22 12:40:57;;;;;;;;;;;6.90;71.40;;;;;;6045907;23;19928;-80
2021/12/22 12:46:19;;;;;;;;;;;6.90;71.30;;;;;;6077846;23;19989;-81
2021/12/22 12:49:07;;;;;;;;;;;6.90;71.60;;;;;;6046876;23;19928;-80
2021/12/22 12:51:36;;;;;;;;;;;6.90;71.80;;;;;;6065912;23;19922;-80
2021/12/22 12:54:04;;;;;;;;;;;6.90;71.90;;;;;;6046969;23;19922;-79
2021/12/22 12:56:35;;;;;;;;;;;6.80;72.00;;;;;;6042424;23;20335;-80
2021/12/22 12:59:09;;;;;;;;;;;6.80;72.10;;;;;;6046995;23;19973;-79
2021/12/22 13:01:52;;;;;;;;;;;6.80;72.50;;;;;;6042919;23;19922;-79
2021/12/22 13:04:23;;;;;;;;;;;6.80;72.50;;;;;;6067308;23;20327;-78
2021/12/22 13:06:54;;;;;;;;;;;6.70;72.60;;;;;;6042446;23;19931;-81
2021/12/22 13:09:21;;;;;;;;;;;6.70;72.80;;;;;;6053033;23;20473;-81
2021/12/22 13:11:57;;;;;;;;;;;6.70;73.10;;;;;;6042388;23;20346;-80
2021/12/22 13:17:25;;;;;;;;;;;6.70;73.10;;;;;;6077308;23;19912;-80
2021/12/22 13:19:54;;;;;;;;;;;6.70;73.00;;;;;;6047087;23;20298;-80
2021/12/22 13:22:22;;;;;;;;;;;6.70;73.10;;;;;;6049929;23;20349;-79
2021/12/22 13:25:08;;;;;;;;;;;6.70;73.30;;;;;;6057529;23;19916;-79
2021/12/22 13:27:38;;;;;;;;;;;6.70;73.40;;;;;;6071802;23;19926;-78
2021/12/22 13:30:09;;;;;;;;;;;6.70;73.50;;;;;;6047567;23;19977;-79
2021/12/22 13:32:53;;;;;;;;;;;6.70;73.30;;;;;;6066433;23;20315;-79
2021/12/22 13:35:27;;;;;;;;;;;6.70;73.40;;;;;;6075053;23;19925;-79
2021/12/22 13:37:53;;;;;;;;;;;6.70;73.40;;;;;;6053280;23;19974;-81
2021/12/22 13:40:35;;;;;;;;;;;6.70;73.30;;;;;;6041292;23;19921;-79
2021/12/22 13:43:02;;;;;;;;;;;6.70;73.10;;;;;;6042184;23;19921;-80
2021/12/22 13:45:29;;;;;;;;;;;6.60;73.10;;;;;;6047248;23;20005;-79
2021/12/22 13:47:56;;;;;;;;;;;6.40;73.70;;;;;;6047902;23;19922;-80
2021/12/22 13:50:24;;;;;;;;;;;6.40;73.90;;;;;;6041458;23;19925;-80
2021/12/22 13:52:51;;;;;;;;;;;6.40;74.30;;;;;;6079603;23;19906;-79
2021/12/22 13:55:19;;;;;;;;;;;6.40;74.70;;;;;;6051700;23;19944;-79
2021/12/22 13:57:46;;;;;;;;;;;6.40;75.00;;;;;;6063812;23;19922;-79
2021/12/22 14:00:19;;;;;;;;;;;6.40;74.70;;;;;;6058857;23;19931;-79
2021/12/22 14:02:47;;;;;;;;;;;6.40;74.60;;;;;;6075481;23;20381;-80
2021/12/22 14:05:18;;;;;;;;;;;6.40;75.00;;;;;;6053821;23;19921;-80
2021/12/22 14:07:45;;;;;;;;;;;6.40;74.80;;;;;;6041082;23;19929;-80
2021/12/22 14:10:16;;;;;;;;;;;6.40;74.90;;;;;;6042263;23;19925;-80
2021/12/22 14:12:45;;;;;;;;;;;6.40;74.80;;;;;;6051132;23;20986;-79
2021/12/22 14:15:12;;;;;;;;;;;6.40;75.00;;;;;;6047414;23;19922;-80
2021/12/22 14:17:41;;;;;;;;;;;6.30;75.30;;;;;;6041320;23;19925;-81
2021/12/22 14:20:09;;;;;;;;;;;6.30;75.40;;;;;;6047615;23;19969;-80
2021/12/22 14:22:37;;;;;;;;;;;6.30;75.40;;;;;;6049874;23;19925;-81
2021/12/22 14:25:10;;;;;;;;;;;6.20;75.60;;;;;;6055272;23;20284;-79
2021/12/22 14:27:39;;;;;;;;;;;6.20;75.80;;;;;;6047104;23;19976;-80
2021/12/22 14:30:20;;;;;;;;;;;6.20;75.90;;;;;;6048017;23;19969;-80
2021/12/22 14:32:58;;;;;;;;;;;6.20;75.90;;;;;;6046643;23;20339;-80
2021/12/22 14:35:27;;;;;;;;;;;6.30;76.10;;;;;;6047231;23;19972;-79
2021/12/22 14:38:14;;;;;;;;;;;6.30;76.10;;;;;;6053081;23;19905;-80
2021/12/22 14:40:49;;;;;;;;;;;6.20;76.40;;;;;;6063589;23;19941;-81
2021/12/22 14:43:17;;;;;;;;;;;6.30;76.00;;;;;;6042375;23;19926;-80
2021/12/22 14:45:45;;;;;;;;;;;6.30;76.10;;;;;;6040661;23;19930;-81
2021/12/22 14:48:13;;;;;;;;;;;6.30;76.00;;;;;;6051082;23;19926;-79
2021/12/22 14:50:55;;;;;;;;;;;6.30;75.60;;;;;;6053732;23;19925;-80
2021/12/22 14:53:30;;;;;;;;;;;6.30;75.50;;;;;;6047250;23;19906;-79
2021/12/22 14:55:57;;;;;;;;;;;6.40;75.30;;;;;;6074682;23;19926;-79
2021/12/22 14:58:24;;;;;;;;;;;6.40;75.10;;;;;;6047840;23;20303;-79
2021/12/22 15:00:51;;;;;;;;;;;6.40;75.00;;;;;;6053775;23;19925;-79
2021/12/22 15:03:18;;;;;;;;;;;6.40;74.80;;;;;;6049794;23;19926;-80
2021/12/22 15:05:51;;;;;;;;;;;6.40;74.70;;;;;;6054118;23;19925;-80
2021/12/22 15:08:18;;;;;;;;;;;6.40;74.80;;;;;;6049043;23;20236;-80
2021/12/22 15:10:48;;;;;;;;;;;6.40;74.80;;;;;;6047861;23;19914;-79
2021/12/22 15:13:15;;;;;;;;;;;6.40;74.90;;;;;;6050098;23;19945;-80
2021/12/22 15:15:42;;;;;;;;;;;6.40;74.90;;;;;;6048475;23;19906;-81
2021/12/22 15:18:09;;;;;;;;;;;6.40;75.30;;;;;;6065199;23;19905;-80
2021/12/22 15:20:35;;;;;;;;;;;6.30;76.00;;;;;;6054332;23;19929;-79
2021/12/22 15:23:03;;;;;;;;;;;6.30;75.50;;;;;;6081944;23;19925;-80
2021/12/22 15:25:30;;;;;;;;;;;6.30;75.70;;;;;;6096893;23;19977;-80
2021/12/22 15:27:56;;;;;;;;;;;6.30;75.80;;;;;;6083166;23;19930;-79
2021/12/22 15:30:23;;;;;;;;;;;6.30;76.40;;;;;;6074882;23;19973;-79
2021/12/22 15:32:50;;;;;;;;;;;6.20;76.30;;;;;;6096125;23;20365;-80
2021/12/22 15:35:18;;;;;;;;;;;6.20;76.20;;;;;;6099876;23;19980;-79
2021/12/22 15:37:44;;;;;;;;;;;6.20;76.10;;;;;;6098150;23;19925;-79
2021/12/22 15:40:12;;;;;;;;;;;6.10;76.40;;;;;;6091744;23;19925;-79
2021/12/22 15:42:40;;;;;;;;;;;6.10;76.00;;;;;;6101179;23;19933;-80
2021/12/22 15:45:08;;;;;;;;;;;6.10;76.00;;;;;;6073911;23;19926;-80
2021/12/22 15:47:36;;;;;;;;;;;6.10;76.20;;;;;;6090647;23;19925;-79
2021/12/22 15:50:03;;;;;;;;;;;6.00;76.00;;;;;;6090972;23;19928;-80
2021/12/22 15:52:30;;;;;;;;;;;6.10;76.30;;;;;;6101346;23;19929;-79
2021/12/22 15:54:57;;;;;;;;;;;6.00;75.90;;;;;;6094849;23;20311;-79